sensor_id;sensor_type;location;lat;lon;timestamp;temperature;humidity
46490;DHT22;32204;49.160;8.580;2023-02-14T00:02:10;3.30;1.00
46490;DHT22;32204;49.160;8.580;2023-02-14T00:04:35;3.20;14.50
46490;DHT22;32204;49.160;8.580;2023-02-14T00:07:09;3.10;40.40
46490;DHT22;32204;49.160;8.580;2023-02-14T00:09:34;3.10;34.20
46490;DHT22;32204;49.160;8.580;2023-02-14T00:12:00;3.00;44.90
46490;DHT22;32204;49.160;8.580;2023-02-14T00:14:26;3.00;1.00
46490;DHT22;32204;49.160;8.580;2023-02-14T00:17:10;2.80;1.00
46490;DHT22;32204;49.160;8.580;2023-02-14T00:19:36;2.70;1.00
46490;DHT22;32204;49.160;8.580;2023-02-14T00:22:02;2.60;1.00
46490;DHT22;32204;49.160;8.580;2023-02-14T00:24:28;2.60;1.00
46490;DHT22;32204;49.160;8.580;2023-02-14T00:26:54;2.60;1.00
46490;DHT22;32204;49.160;8.580;2023-02-14T00:29:22;2.60;1.00
46490;DHT22;32204;49.160;8.580;2023-02-14T00:31:48;2.70;1.00
46490;DHT22;32204;49.160;8.580;2023-02-14T00:34:15;2.70;1.00
46490;DHT22;32204;49.160;8.580;2023-02-14T00:36:41;2.80;1.00
46490;DHT22;32204;49.160;8.580;2023-02-14T00:39:09;2.80;1.00
46490;DHT22;32204;49.160;8.580;2023-02-14T00:41:34;2.80;1.00
46490;DHT22;32204;49.160;8.580;2023-02-14T00:44:01;2.90;1.00
46490;DHT22;32204;49.160;8.580;2023-02-14T00:46:27;2.80;1.00
46490;DHT22;32204;49.160;8.580;2023-02-14T00:48:53;2.70;1.00
46490;DHT22;32204;49.160;8.580;2023-02-14T00:51:19;2.70;1.00
46490;DHT22;32204;49.160;8.580;2023-02-14T00:53:46;2.60;1.00
46490;DHT22;32204;49.160;8.580;2023-02-14T00:56:13;2.60;1.00
46490;DHT22;32204;49.160;8.580;2023-02-14T00:58:39;2.60;1.00
46490;DHT22;32204;49.160;8.580;2023-02-14T01:01:05;2.60;1.00
46490;DHT22;32204;49.160;8.580;2023-02-14T01:03:31;2.60;1.00
46490;DHT22;32204;49.160;8.580;2023-02-14T01:05:56;2.60;1.00
46490;DHT22;32204;49.160;8.580;2023-02-14T01:08:23;2.60;1.00
46490;DHT22;32204;49.160;8.580;2023-02-14T01:10:49;2.50;1.00
46490;DHT22;32204;49.160;8.580;2023-02-14T01:13:15;2.50;1.00
46490;DHT22;32204;49.160;8.580;2023-02-14T01:15:46;2.60;1.00
46490;DHT22;32204;49.160;8.580;2023-02-14T01:18:13;2.50;9.70
46490;DHT22;32204;49.160;8.580;2023-02-14T01:20:39;2.50;1.00
46490;DHT22;32204;49.160;8.580;2023-02-14T01:23:04;2.50;1.00
46490;DHT22;32204;49.160;8.580;2023-02-14T01:25:30;2.50;1.00
46490;DHT22;32204;49.160;8.580;2023-02-14T01:27:56;2.50;1.00
46490;DHT22;32204;49.160;8.580;2023-02-14T01:30:22;2.40;1.00
46490;DHT22;32204;49.160;8.580;2023-02-14T01:32:48;2.40;1.00
46490;DHT22;32204;49.160;8.580;2023-02-14T01:35:14;2.30;1.00
46490;DHT22;32204;49.160;8.580;2023-02-14T01:37:40;2.30;1.00
46490;DHT22;32204;49.160;8.580;2023-02-14T01:40:07;2.30;1.00
46490;DHT22;32204;49.160;8.580;2023-02-14T01:42:34;2.40;1.00
46490;DHT22;32204;49.160;8.580;2023-02-14T01:45:19;2.30;1.00
46490;DHT22;32204;49.160;8.580;2023-02-14T01:47:49;2.40;1.00
46490;DHT22;32204;49.160;8.580;2023-02-14T01:50:27;2.40;1.00
46490;DHT22;32204;49.160;8.580;2023-02-14T01:53:02;2.50;1.00
46490;DHT22;32204;49.160;8.580;2023-02-14T01:55:31;2.50;1.00
46490;DHT22;32204;49.160;8.580;2023-02-14T01:58:05;2.60;1.00
46490;DHT22;32204;49.160;8.580;2023-02-14T02:00:32;2.60;1.00
46490;DHT22;32204;49.160;8.580;2023-02-14T02:03:18;2.50;5.80
46490;DHT22;32204;49.160;8.580;2023-02-14T02:05:47;2.50;21.40
46490;DHT22;32204;49.160;8.580;2023-02-14T02:08:14;2.50;1.00
46490;DHT22;32204;49.160;8.580;2023-02-14T02:10:40;2.50;1.00
46490;DHT22;32204;49.160;8.580;2023-02-14T02:13:07;2.40;1.00
46490;DHT22;32204;49.160;8.580;2023-02-14T02:16:01;2.40;7.30
46490;DHT22;32204;49.160;8.580;2023-02-14T02:24:20;2.20;1.00
46490;DHT22;32204;49.160;8.580;2023-02-14T02:29:37;2.10;1.00
46490;DHT22;32204;49.160;8.580;2023-02-14T02:37:38;1.80;1.00
46490;DHT22;32204;49.160;8.580;2023-02-14T02:45:50;1.90;8.20
46490;DHT22;32204;49.160;8.580;2023-02-14T02:48:43;1.90;19.40
46490;DHT22;32204;49.160;8.580;2023-02-14T02:51:20;1.90;45.90
46490;DHT22;32204;49.160;8.580;2023-02-14T02:57:24;1.60;99.90
46490;DHT22;32204;49.160;8.580;2023-02-14T02:59:51;1.40;99.90
46490;DHT22;32204;49.160;8.580;2023-02-14T03:02:29;1.20;99.90
46490;DHT22;32204;49.160;8.580;2023-02-14T03:04:59;1.20;99.90
46490;DHT22;32204;49.160;8.580;2023-02-14T03:07:35;1.10;99.90
46490;DHT22;32204;49.160;8.580;2023-02-14T03:12:45;1.10;99.90
46490;DHT22;32204;49.160;8.580;2023-02-14T03:15:38;1.10;99.90
46490;DHT22;32204;49.160;8.580;2023-02-14T03:23:38;1.10;99.90
46490;DHT22;32204;49.160;8.580;2023-02-14T03:26:19;1.20;99.90
46490;DHT22;32204;49.160;8.580;2023-02-14T03:29:04;1.30;99.90
46490;DHT22;32204;49.160;8.580;2023-02-14T03:31:54;1.30;99.90
46490;DHT22;32204;49.160;8.580;2023-02-14T03:37:10;1.30;99.90
46490;DHT22;32204;49.160;8.580;2023-02-14T03:39:39;1.40;99.90
46490;DHT22;32204;49.160;8.580;2023-02-14T03:42:14;1.50;99.90
46490;DHT22;32204;49.160;8.580;2023-02-14T03:44:43;1.40;99.90
46490;DHT22;32204;49.160;8.580;2023-02-14T03:47:12;1.50;99.90
46490;DHT22;32204;49.160;8.580;2023-02-14T03:50:02;1.50;99.90
46490;DHT22;32204;49.160;8.580;2023-02-14T03:52:30;1.50;99.90
46490;DHT22;32204;49.160;8.580;2023-02-14T03:55:00;1.50;99.90
46490;DHT22;32204;49.160;8.580;2023-02-14T03:57:37;1.60;99.90
46490;DHT22;32204;49.160;8.580;2023-02-14T04:00:07;1.60;99.90
46490;DHT22;32204;49.160;8.580;2023-02-14T04:02:43;1.60;99.90
46490;DHT22;32204;49.160;8.580;2023-02-14T04:05:19;1.70;99.90
46490;DHT22;32204;49.160;8.580;2023-02-14T04:07:48;1.70;99.90
46490;DHT22;32204;49.160;8.580;2023-02-14T04:10:15;1.80;99.90
46490;DHT22;32204;49.160;8.580;2023-02-14T04:12:41;1.80;99.90
46490;DHT22;32204;49.160;8.580;2023-02-14T04:15:08;1.90;99.90
46490;DHT22;32204;49.160;8.580;2023-02-14T04:17:34;1.90;99.90
46490;DHT22;32204;49.160;8.580;2023-02-14T04:20:18;1.90;99.90
46490;DHT22;32204;49.160;8.580;2023-02-14T04:22:44;1.90;99.90
46490;DHT22;32204;49.160;8.580;2023-02-14T04:25:11;1.90;99.90
46490;DHT22;32204;49.160;8.580;2023-02-14T04:27:36;2.00;99.90
46490;DHT22;32204;49.160;8.580;2023-02-14T04:30:03;2.00;99.90
46490;DHT22;32204;49.160;8.580;2023-02-14T04:32:28;2.00;99.90
46490;DHT22;32204;49.160;8.580;2023-02-14T04:34:54;2.00;99.90
46490;DHT22;32204;49.160;8.580;2023-02-14T04:37:19;1.90;99.90
46490;DHT22;32204;49.160;8.580;2023-02-14T04:39:45;2.00;99.90
46490;DHT22;32204;49.160;8.580;2023-02-14T04:42:11;1.90;99.90
46490;DHT22;32204;49.160;8.580;2023-02-14T04:44:37;1.90;99.90
46490;DHT22;32204;49.160;8.580;2023-02-14T04:47:03;1.90;99.90
46490;DHT22;32204;49.160;8.580;2023-02-14T04:49:29;1.90;99.90
46490;DHT22;32204;49.160;8.580;2023-02-14T04:51:55;1.80;99.90
46490;DHT22;32204;49.160;8.580;2023-02-14T04:54:21;1.80;99.90
46490;DHT22;32204;49.160;8.580;2023-02-14T04:56:46;1.90;99.90
46490;DHT22;32204;49.160;8.580;2023-02-14T04:59:12;1.90;99.90
46490;DHT22;32204;49.160;8.580;2023-02-14T05:01:39;1.90;99.90
46490;DHT22;32204;49.160;8.580;2023-02-14T05:04:05;1.90;99.90
46490;DHT22;32204;49.160;8.580;2023-02-14T05:06:31;1.90;99.90
46490;DHT22;32204;49.160;8.580;2023-02-14T05:08:59;1.90;99.90
46490;DHT22;32204;49.160;8.580;2023-02-14T05:11:25;1.90;99.90
46490;DHT22;32204;49.160;8.580;2023-02-14T05:13:51;1.90;99.90
46490;DHT22;32204;49.160;8.580;2023-02-14T05:16:17;1.90;99.90
46490;DHT22;32204;49.160;8.580;2023-02-14T05:18:43;2.00;99.90
46490;DHT22;32204;49.160;8.580;2023-02-14T05:21:08;2.00;99.90
46490;DHT22;32204;49.160;8.580;2023-02-14T05:23:35;2.00;99.90
46490;DHT22;32204;49.160;8.580;2023-02-14T05:26:00;2.00;99.90
46490;DHT22;32204;49.160;8.580;2023-02-14T05:28:26;2.00;99.90
46490;DHT22;32204;49.160;8.580;2023-02-14T05:30:51;2.00;99.90
46490;DHT22;32204;49.160;8.580;2023-02-14T05:33:17;2.00;99.90
46490;DHT22;32204;49.160;8.580;2023-02-14T05:35:43;2.10;99.90
46490;DHT22;32204;49.160;8.580;2023-02-14T05:38:09;2.10;99.90
46490;DHT22;32204;49.160;8.580;2023-02-14T05:40:34;2.10;99.90
46490;DHT22;32204;49.160;8.580;2023-02-14T05:43:00;2.10;99.90
46490;DHT22;32204;49.160;8.580;2023-02-14T05:45:26;2.10;99.90
46490;DHT22;32204;49.160;8.580;2023-02-14T05:47:51;2.10;99.90
46490;DHT22;32204;49.160;8.580;2023-02-14T05:50:17;2.10;99.90
46490;DHT22;32204;49.160;8.580;2023-02-14T05:52:43;2.10;99.90
46490;DHT22;32204;49.160;8.580;2023-02-14T05:55:09;2.10;99.90
46490;DHT22;32204;49.160;8.580;2023-02-14T05:57:35;2.10;99.90
46490;DHT22;32204;49.160;8.580;2023-02-14T06:00:02;2.10;99.90
46490;DHT22;32204;49.160;8.580;2023-02-14T06:02:29;2.10;99.90
46490;DHT22;32204;49.160;8.580;2023-02-14T06:04:55;2.00;99.90
46490;DHT22;32204;49.160;8.580;2023-02-14T06:07:21;2.00;99.90
46490;DHT22;32204;49.160;8.580;2023-02-14T06:09:46;2.00;99.90
46490;DHT22;32204;49.160;8.580;2023-02-14T06:12:12;2.10;99.90
46490;DHT22;32204;49.160;8.580;2023-02-14T06:14:37;2.10;99.90
46490;DHT22;32204;49.160;8.580;2023-02-14T06:17:05;2.10;99.90
46490;DHT22;32204;49.160;8.580;2023-02-14T06:19:31;2.10;99.90
46490;DHT22;32204;49.160;8.580;2023-02-14T06:21:57;2.10;99.90
46490;DHT22;32204;49.160;8.580;2023-02-14T06:24:22;2.20;99.90
46490;DHT22;32204;49.160;8.580;2023-02-14T06:26:48;2.30;99.90
46490;DHT22;32204;49.160;8.580;2023-02-14T06:29:15;2.20;99.90
46490;DHT22;32204;49.160;8.580;2023-02-14T06:31:41;2.10;99.90
46490;DHT22;32204;49.160;8.580;2023-02-14T06:34:07;2.10;99.90
46490;DHT22;32204;49.160;8.580;2023-02-14T06:36:32;2.10;99.90
46490;DHT22;32204;49.160;8.580;2023-02-14T06:38:58;2.20;99.90
46490;DHT22;32204;49.160;8.580;2023-02-14T06:41:23;2.10;99.90
46490;DHT22;32204;49.160;8.580;2023-02-14T06:43:49;2.10;99.90
46490;DHT22;32204;49.160;8.580;2023-02-14T06:46:16;2.10;99.90
46490;DHT22;32204;49.160;8.580;2023-02-14T06:48:42;2.00;99.90
46490;DHT22;32204;49.160;8.580;2023-02-14T06:51:07;2.10;99.90
46490;DHT22;32204;49.160;8.580;2023-02-14T06:53:33;2.10;99.90
46490;DHT22;32204;49.160;8.580;2023-02-14T06:55:59;2.20;99.90
46490;DHT22;32204;49.160;8.580;2023-02-14T06:58:25;2.20;99.90
46490;DHT22;32204;49.160;8.580;2023-02-14T07:00:53;2.20;99.90
46490;DHT22;32204;49.160;8.580;2023-02-14T07:03:18;2.20;99.90
46490;DHT22;32204;49.160;8.580;2023-02-14T07:05:44;2.20;99.90
46490;DHT22;32204;49.160;8.580;2023-02-14T07:08:10;2.20;99.90
46490;DHT22;32204;49.160;8.580;2023-02-14T07:10:35;2.30;99.90
46490;DHT22;32204;49.160;8.580;2023-02-14T07:13:02;2.20;99.90
46490;DHT22;32204;49.160;8.580;2023-02-14T07:15:27;2.30;99.90
46490;DHT22;32204;49.160;8.580;2023-02-14T07:17:53;2.10;99.90
46490;DHT22;32204;49.160;8.580;2023-02-14T07:20:19;2.00;99.90
46490;DHT22;32204;49.160;8.580;2023-02-14T07:22:45;2.10;99.90
46490;DHT22;32204;49.160;8.580;2023-02-14T07:25:11;2.10;99.90
46490;DHT22;32204;49.160;8.580;2023-02-14T07:27:37;2.20;99.90
46490;DHT22;32204;49.160;8.580;2023-02-14T07:30:04;2.20;99.90
46490;DHT22;32204;49.160;8.580;2023-02-14T07:32:30;2.10;99.90
46490;DHT22;32204;49.160;8.580;2023-02-14T07:34:56;2.20;99.90
46490;DHT22;32204;49.160;8.580;2023-02-14T07:37:21;2.20;99.90
46490;DHT22;32204;49.160;8.580;2023-02-14T07:39:47;2.30;99.90
46490;DHT22;32204;49.160;8.580;2023-02-14T07:42:12;2.30;99.90
46490;DHT22;32204;49.160;8.580;2023-02-14T07:44:38;2.20;99.90
46490;DHT22;32204;49.160;8.580;2023-02-14T07:47:05;2.20;99.90
46490;DHT22;32204;49.160;8.580;2023-02-14T07:49:31;2.20;99.90
46490;DHT22;32204;49.160;8.580;2023-02-14T07:51:57;2.10;99.90
46490;DHT22;32204;49.160;8.580;2023-02-14T07:54:22;2.10;99.90
46490;DHT22;32204;49.160;8.580;2023-02-14T07:56:48;2.10;99.90
46490;DHT22;32204;49.160;8.580;2023-02-14T07:59:14;2.10;99.90
46490;DHT22;32204;49.160;8.580;2023-02-14T08:01:40;2.10;99.90
46490;DHT22;32204;49.160;8.580;2023-02-14T08:04:06;2.10;99.90
46490;DHT22;32204;49.160;8.580;2023-02-14T08:06:32;2.20;99.90
46490;DHT22;32204;49.160;8.580;2023-02-14T08:08:57;2.20;99.90
46490;DHT22;32204;49.160;8.580;2023-02-14T08:11:23;2.30;99.90
46490;DHT22;32204;49.160;8.580;2023-02-14T08:14:07;2.40;99.90
46490;DHT22;32204;49.160;8.580;2023-02-14T08:16:32;2.30;99.90
46490;DHT22;32204;49.160;8.580;2023-02-14T08:18:59;2.20;99.90
46490;DHT22;32204;49.160;8.580;2023-02-14T08:21:25;2.30;99.90
46490;DHT22;32204;49.160;8.580;2023-02-14T08:23:50;2.40;99.90
46490;DHT22;32204;49.160;8.580;2023-02-14T08:26:16;2.40;99.90
46490;DHT22;32204;49.160;8.580;2023-02-14T08:28:42;2.50;99.90
46490;DHT22;32204;49.160;8.580;2023-02-14T08:31:08;2.50;99.90
46490;DHT22;32204;49.160;8.580;2023-02-14T08:33:34;2.50;99.90
46490;DHT22;32204;49.160;8.580;2023-02-14T08:36:00;2.50;99.90
46490;DHT22;32204;49.160;8.580;2023-02-14T08:38:27;2.50;99.90
46490;DHT22;32204;49.160;8.580;2023-02-14T08:40:53;2.60;99.90
46490;DHT22;32204;49.160;8.580;2023-02-14T08:43:19;2.60;99.90
46490;DHT22;32204;49.160;8.580;2023-02-14T08:45:44;2.80;99.90
46490;DHT22;32204;49.160;8.580;2023-02-14T08:48:11;2.90;99.90
46490;DHT22;32204;49.160;8.580;2023-02-14T08:50:37;2.90;99.90
46490;DHT22;32204;49.160;8.580;2023-02-14T08:53:08;2.90;99.90
46490;DHT22;32204;49.160;8.580;2023-02-14T08:55:34;2.90;99.90
46490;DHT22;32204;49.160;8.580;2023-02-14T08:58:00;3.00;99.90
46490;DHT22;32204;49.160;8.580;2023-02-14T09:00:26;2.90;99.90
46490;DHT22;32204;49.160;8.580;2023-02-14T09:02:52;3.10;99.90
46490;DHT22;32204;49.160;8.580;2023-02-14T09:05:19;3.10;99.90
46490;DHT22;32204;49.160;8.580;2023-02-14T09:07:45;3.20;99.90
46490;DHT22;32204;49.160;8.580;2023-02-14T09:10:11;3.20;99.90
46490;DHT22;32204;49.160;8.580;2023-02-14T09:12:40;3.20;99.90
46490;DHT22;32204;49.160;8.580;2023-02-14T09:15:07;3.30;99.90
46490;DHT22;32204;49.160;8.580;2023-02-14T09:17:34;3.30;99.90
46490;DHT22;32204;49.160;8.580;2023-02-14T09:20:00;3.20;99.90
46490;DHT22;32204;49.160;8.580;2023-02-14T09:22:26;3.30;99.90
46490;DHT22;32204;49.160;8.580;2023-02-14T09:24:52;3.20;99.90
46490;DHT22;32204;49.160;8.580;2023-02-14T09:27:17;3.20;99.90
46490;DHT22;32204;49.160;8.580;2023-02-14T09:29:43;3.00;99.90
46490;DHT22;32204;49.160;8.580;2023-02-14T09:32:08;3.00;99.90
46490;DHT22;32204;49.160;8.580;2023-02-14T09:34:34;3.20;99.90
46490;DHT22;32204;49.160;8.580;2023-02-14T09:37:01;3.30;99.90
46490;DHT22;32204;49.160;8.580;2023-02-14T09:39:26;3.40;99.90
46490;DHT22;32204;49.160;8.580;2023-02-14T09:47:55;3.60;99.90
46490;DHT22;32204;49.160;8.580;2023-02-14T09:50:26;3.60;99.90
46490;DHT22;32204;49.160;8.580;2023-02-14T09:52:56;3.60;83.40
46490;DHT22;32204;49.160;8.580;2023-02-14T09:55:26;3.80;96.70
46490;DHT22;32204;49.160;8.580;2023-02-14T09:58:05;3.90;5.90
46490;DHT22;32204;49.160;8.580;2023-02-14T10:01:47;3.80;1.00
46490;DHT22;32204;49.160;8.580;2023-02-14T10:03:59;3.90;23.60
46490;DHT22;32204;49.160;8.580;2023-02-14T10:09:25;3.60;19.10
46490;DHT22;32204;49.160;8.580;2023-02-14T10:11:57;3.50;96.90
46490;DHT22;32204;49.160;8.580;2023-02-14T10:14:28;3.50;95.60
46490;DHT22;32204;49.160;8.580;2023-02-14T10:16:58;3.50;71.10
46490;DHT22;32204;49.160;8.580;2023-02-14T10:19:39;3.60;99.90
46490;DHT22;32204;49.160;8.580;2023-02-14T10:22:12;3.70;99.90
46490;DHT22;32204;49.160;8.580;2023-02-14T10:27:36;4.00;3.80
46490;DHT22;32204;49.160;8.580;2023-02-14T10:30:21;3.90;1.00
46490;DHT22;32204;49.160;8.580;2023-02-14T10:32:48;4.10;1.00
46490;DHT22;32204;49.160;8.580;2023-02-14T10:35:39;4.10;1.00
46490;DHT22;32204;49.160;8.580;2023-02-14T10:46:38;4.40;1.00
46490;DHT22;32204;49.160;8.580;2023-02-14T10:49:46;4.50;1.00
46490;DHT22;32204;49.160;8.580;2023-02-14T10:52:22;4.50;1.00
46490;DHT22;32204;49.160;8.580;2023-02-14T10:54:55;4.40;99.90
46490;DHT22;32204;49.160;8.580;2023-02-14T10:57:34;4.40;1.00
46490;DHT22;32204;49.160;8.580;2023-02-14T11:00:05;4.50;1.00
46490;DHT22;32204;49.160;8.580;2023-02-14T11:02:43;4.80;1.00
46490;DHT22;32204;49.160;8.580;2023-02-14T11:05:30;5.00;99.90
46490;DHT22;32204;49.160;8.580;2023-02-14T11:07:57;4.90;99.90
46490;DHT22;32204;49.160;8.580;2023-02-14T11:10:30;4.80;99.90
46490;DHT22;32204;49.160;8.580;2023-02-14T11:12:56;4.70;99.90
46490;DHT22;32204;49.160;8.580;2023-02-14T11:15:31;4.90;99.90
46490;DHT22;32204;49.160;8.580;2023-02-14T11:18:22;5.10;99.90
46490;DHT22;32204;49.160;8.580;2023-02-14T11:21:07;5.10;99.90
46490;DHT22;32204;49.160;8.580;2023-02-14T11:23:40;5.20;59.30
46490;DHT22;32204;49.160;8.580;2023-02-14T11:26:46;5.20;1.00
46490;DHT22;32204;49.160;8.580;2023-02-14T11:29:15;5.00;99.90
46490;DHT22;32204;49.160;8.580;2023-02-14T11:31:41;5.10;99.90
46490;DHT22;32204;49.160;8.580;2023-02-14T11:34:33;5.10;99.90
46490;DHT22;32204;49.160;8.580;2023-02-14T11:37:02;5.40;99.90
46490;DHT22;32204;49.160;8.580;2023-02-14T11:39:32;5.20;1.00
46490;DHT22;32204;49.160;8.580;2023-02-14T11:42:03;5.10;99.90
46490;DHT22;32204;49.160;8.580;2023-02-14T11:44:32;5.30;99.90
46490;DHT22;32204;49.160;8.580;2023-02-14T11:47:28;5.50;1.00
46490;DHT22;32204;49.160;8.580;2023-02-14T11:49:59;5.30;1.00
46490;DHT22;32204;49.160;8.580;2023-02-14T11:52:27;5.40;1.00
46490;DHT22;32204;49.160;8.580;2023-02-14T11:54:55;5.60;99.90
46490;DHT22;32204;49.160;8.580;2023-02-14T11:59:53;5.90;99.90
46490;DHT22;32204;49.160;8.580;2023-02-14T12:02:41;5.80;1.00
46490;DHT22;32204;49.160;8.580;2023-02-14T12:07:53;5.90;99.90
46490;DHT22;32204;49.160;8.580;2023-02-14T12:15:48;6.40;71.20
46490;DHT22;32204;49.160;8.580;2023-02-14T12:21:26;6.00;1.00
46490;DHT22;32204;49.160;8.580;2023-02-14T12:24:10;5.90;99.90
46490;DHT22;32204;49.160;8.580;2023-02-14T12:31:48;5.70;2.10
46490;DHT22;32204;49.160;8.580;2023-02-14T12:34:15;5.80;25.00
46490;DHT22;32204;49.160;8.580;2023-02-14T12:37:33;5.80;1.00
46490;DHT22;32204;49.160;8.580;2023-02-14T12:42:53;5.80;99.90
46490;DHT22;32204;49.160;8.580;2023-02-14T13:00:47;6.20;99.90
46490;DHT22;32204;49.160;8.580;2023-02-14T13:06:24;6.40;1.00
46490;DHT22;32204;49.160;8.580;2023-02-14T13:14:56;6.60;99.90
46490;DHT22;32204;49.160;8.580;2023-02-14T13:17:49;6.60;99.90
46490;DHT22;32204;49.160;8.580;2023-02-14T13:20:43;6.60;1.00
46490;DHT22;32204;49.160;8.580;2023-02-14T13:23:14;6.70;1.00
46490;DHT22;32204;49.160;8.580;2023-02-14T13:25:46;6.80;99.90
46490;DHT22;32204;49.160;8.580;2023-02-14T13:28:15;6.80;1.00
46490;DHT22;32204;49.160;8.580;2023-02-14T13:30:43;6.90;99.90
46490;DHT22;32204;49.160;8.580;2023-02-14T13:36:13;7.20;99.90
46490;DHT22;32204;49.160;8.580;2023-02-14T13:38:44;7.20;99.90
46490;DHT22;32204;49.160;8.580;2023-02-14T13:41:12;7.20;1.00
46490;DHT22;32204;49.160;8.580;2023-02-14T13:46:19;7.40;99.90
46490;DHT22;32204;49.160;8.580;2023-02-14T13:54:30;7.10;99.90
46490;DHT22;32204;49.160;8.580;2023-02-14T13:57:31;7.10;1.00
46490;DHT22;32204;49.160;8.580;2023-02-14T14:02:45;7.20;99.90
46490;DHT22;32204;49.160;8.580;2023-02-14T14:10:53;7.40;99.90
46490;DHT22;32204;49.160;8.580;2023-02-14T14:21:28;7.30;99.90
46490;DHT22;32204;49.160;8.580;2023-02-14T14:24:20;7.50;89.30
46490;DHT22;32204;49.160;8.580;2023-02-14T14:29:24;7.90;96.30
46490;DHT22;32204;49.160;8.580;2023-02-14T14:31:51;7.80;99.90
46490;DHT22;32204;49.160;8.580;2023-02-14T14:34:24;7.70;40.80
46490;DHT22;32204;49.160;8.580;2023-02-14T14:37:05;7.80;1.00
46490;DHT22;32204;49.160;8.580;2023-02-14T14:39:33;7.80;99.90
46490;DHT22;32204;49.160;8.580;2023-02-14T14:42:13;7.70;99.90
46490;DHT22;32204;49.160;8.580;2023-02-14T14:44:52;7.80;99.90
46490;DHT22;32204;49.160;8.580;2023-02-14T14:47:22;7.90;1.00
46490;DHT22;32204;49.160;8.580;2023-02-14T14:49:52;8.00;1.00
46490;DHT22;32204;49.160;8.580;2023-02-14T14:52:41;8.00;1.00
46490;DHT22;32204;49.160;8.580;2023-02-14T14:55:16;8.20;35.40
46490;DHT22;32204;49.160;8.580;2023-02-14T14:57:51;8.30;99.90
46490;DHT22;32204;49.160;8.580;2023-02-14T15:00:27;8.20;99.90
46490;DHT22;32204;49.160;8.580;2023-02-14T15:05:28;8.20;1.00
46490;DHT22;32204;49.160;8.580;2023-02-14T15:07:54;8.00;1.00
46490;DHT22;32204;49.160;8.580;2023-02-14T15:10:31;8.00;99.90
46490;DHT22;32204;49.160;8.580;2023-02-14T15:12:58;8.10;1.00
46490;DHT22;32204;49.160;8.580;2023-02-14T15:15:50;8.10;99.90
46490;DHT22;32204;49.160;8.580;2023-02-14T15:18:17;8.00;99.90
46490;DHT22;32204;49.160;8.580;2023-02-14T15:20:48;8.00;99.90
46490;DHT22;32204;49.160;8.580;2023-02-14T15:23:20;8.10;1.00
46490;DHT22;32204;49.160;8.580;2023-02-14T15:25:47;8.00;99.90
46490;DHT22;32204;49.160;8.580;2023-02-14T15:28:34;8.10;99.90
46490;DHT22;32204;49.160;8.580;2023-02-14T15:31:04;7.90;99.90
46490;DHT22;32204;49.160;8.580;2023-02-14T15:33:32;7.80;99.90
46490;DHT22;32204;49.160;8.580;2023-02-14T15:36:04;7.90;1.00
46490;DHT22;32204;49.160;8.580;2023-02-14T15:38:31;8.00;99.90
46490;DHT22;32204;49.160;8.580;2023-02-14T15:41:00;7.90;99.90
46490;DHT22;32204;49.160;8.580;2023-02-14T15:43:32;7.90;1.00
46490;DHT22;32204;49.160;8.580;2023-02-14T15:46:25;8.00;1.00
46490;DHT22;32204;49.160;8.580;2023-02-14T15:48:53;8.00;99.90
46490;DHT22;32204;49.160;8.580;2023-02-14T15:51:22;8.20;1.00
46490;DHT22;32204;49.160;8.580;2023-02-14T15:54:06;8.30;1.00
46490;DHT22;32204;49.160;8.580;2023-02-14T15:56:42;8.30;32.30
46490;DHT22;32204;49.160;8.580;2023-02-14T15:59:16;8.50;99.90
46490;DHT22;32204;49.160;8.580;2023-02-14T16:01:55;8.50;99.90
46490;DHT22;32204;49.160;8.580;2023-02-14T16:04:26;8.50;1.00
46490;DHT22;32204;49.160;8.580;2023-02-14T16:09:49;8.20;1.00
46490;DHT22;32204;49.160;8.580;2023-02-14T16:12:31;8.10;99.90
46490;DHT22;32204;49.160;8.580;2023-02-14T16:15:09;7.90;99.90
46490;DHT22;32204;49.160;8.580;2023-02-14T16:17:40;7.90;7.50
46490;DHT22;32204;49.160;8.580;2023-02-14T16:25:41;7.50;99.90
46490;DHT22;32204;49.160;8.580;2023-02-14T16:28:06;7.40;5.40
46490;DHT22;32204;49.160;8.580;2023-02-14T16:30:33;7.30;99.90
46490;DHT22;32204;49.160;8.580;2023-02-14T16:32:59;7.20;1.00
46490;DHT22;32204;49.160;8.580;2023-02-14T16:35:25;7.10;1.00
46490;DHT22;32204;49.160;8.580;2023-02-14T16:37:51;7.00;99.90
46490;DHT22;32204;49.160;8.580;2023-02-14T16:40:19;7.00;99.90
46490;DHT22;32204;49.160;8.580;2023-02-14T16:42:45;6.90;99.90
46490;DHT22;32204;49.160;8.580;2023-02-14T16:45:15;6.90;99.90
46490;DHT22;32204;49.160;8.580;2023-02-14T16:47:42;6.80;1.00
46490;DHT22;32204;49.160;8.580;2023-02-14T16:50:08;6.70;1.00
46490;DHT22;32204;49.160;8.580;2023-02-14T16:52:34;6.60;1.00
46490;DHT22;32204;49.160;8.580;2023-02-14T16:55:00;6.60;99.90
46490;DHT22;32204;49.160;8.580;2023-02-14T16:57:29;6.50;99.90
46490;DHT22;32204;49.160;8.580;2023-02-14T16:59:56;6.50;99.90
46490;DHT22;32204;49.160;8.580;2023-02-14T17:02:22;6.40;1.00
46490;DHT22;32204;49.160;8.580;2023-02-14T17:04:50;6.30;99.90
46490;DHT22;32204;49.160;8.580;2023-02-14T17:07:16;6.30;1.00
46490;DHT22;32204;49.160;8.580;2023-02-14T17:09:46;6.20;27.50
46490;DHT22;32204;49.160;8.580;2023-02-14T17:12:15;6.10;23.20
46490;DHT22;32204;49.160;8.580;2023-02-14T17:14:46;6.00;99.90
46490;DHT22;32204;49.160;8.580;2023-02-14T17:17:13;6.00;99.90
46490;DHT22;32204;49.160;8.580;2023-02-14T17:19:39;5.80;99.90
46490;DHT22;32204;49.160;8.580;2023-02-14T17:22:05;5.60;1.00
46490;DHT22;32204;49.160;8.580;2023-02-14T17:24:31;5.50;99.90
46490;DHT22;32204;49.160;8.580;2023-02-14T17:26:57;5.30;99.90
46490;DHT22;32204;49.160;8.580;2023-02-14T17:29:23;5.20;99.90
46490;DHT22;32204;49.160;8.580;2023-02-14T17:31:49;5.10;99.90
46490;DHT22;32204;49.160;8.580;2023-02-14T17:34:15;5.10;99.90
46490;DHT22;32204;49.160;8.580;2023-02-14T17:36:40;5.20;99.90
46490;DHT22;32204;49.160;8.580;2023-02-14T17:39:06;5.20;99.90
46490;DHT22;32204;49.160;8.580;2023-02-14T17:41:32;5.20;99.90
46490;DHT22;32204;49.160;8.580;2023-02-14T17:43:58;5.10;99.90
46490;DHT22;32204;49.160;8.580;2023-02-14T17:46:29;5.10;99.90
46490;DHT22;32204;49.160;8.580;2023-02-14T17:48:56;4.90;99.90
46490;DHT22;32204;49.160;8.580;2023-02-14T17:51:22;4.70;99.90
46490;DHT22;32204;49.160;8.580;2023-02-14T17:53:48;4.50;99.90
46490;DHT22;32204;49.160;8.580;2023-02-14T17:56:16;4.50;1.00
46490;DHT22;32204;49.160;8.580;2023-02-14T17:58:43;4.40;1.00
46490;DHT22;32204;49.160;8.580;2023-02-14T18:01:13;4.30;1.00
46490;DHT22;32204;49.160;8.580;2023-02-14T18:03:39;4.20;1.00
46490;DHT22;32204;49.160;8.580;2023-02-14T18:06:05;4.20;1.00
46490;DHT22;32204;49.160;8.580;2023-02-14T18:08:36;4.20;1.00
46490;DHT22;32204;49.160;8.580;2023-02-14T18:11:06;4.20;1.00
46490;DHT22;32204;49.160;8.580;2023-02-14T18:13:32;4.20;1.00
46490;DHT22;32204;49.160;8.580;2023-02-14T18:16:01;4.20;1.00
46490;DHT22;32204;49.160;8.580;2023-02-14T18:18:27;4.20;1.00
46490;DHT22;32204;49.160;8.580;2023-02-14T18:20:55;4.20;1.00
46490;DHT22;32204;49.160;8.580;2023-02-14T18:23:21;4.30;1.00
46490;DHT22;32204;49.160;8.580;2023-02-14T18:25:51;4.30;1.00
46490;DHT22;32204;49.160;8.580;2023-02-14T18:28:17;4.20;1.00
46490;DHT22;32204;49.160;8.580;2023-02-14T18:30:43;4.10;1.00